sensor_id;sensor_type;location;lat;lon;timestamp;temperature;humidity
40291;DHT22;26000;48.304;13.626;2022-09-29T00:02:16;10.50;99.90
40291;DHT22;26000;48.304;13.626;2022-09-29T00:04:42;10.50;99.90
40291;DHT22;26000;48.304;13.626;2022-09-29T00:07:07;10.50;99.90
40291;DHT22;26000;48.304;13.626;2022-09-29T00:09:33;10.50;99.90
40291;DHT22;26000;48.304;13.626;2022-09-29T00:11:59;10.50;99.90
40291;DHT22;26000;48.304;13.626;2022-09-29T00:14:25;10.50;99.90
40291;DHT22;26000;48.304;13.626;2022-09-29T00:16:50;10.40;99.90
40291;DHT22;26000;48.304;13.626;2022-09-29T00:19:17;10.40;99.90
40291;DHT22;26000;48.304;13.626;2022-09-29T00:21:44;10.40;99.90
40291;DHT22;26000;48.304;13.626;2022-09-29T00:24:09;10.40;99.90
40291;DHT22;26000;48.304;13.626;2022-09-29T00:26:35;10.30;99.90
40291;DHT22;26000;48.304;13.626;2022-09-29T00:29:02;10.40;99.90
40291;DHT22;26000;48.304;13.626;2022-09-29T00:31:29;10.40;99.90
40291;DHT22;26000;48.304;13.626;2022-09-29T00:33:55;10.40;99.90
40291;DHT22;26000;48.304;13.626;2022-09-29T00:36:22;10.30;99.90
40291;DHT22;26000;48.304;13.626;2022-09-29T00:38:49;10.30;99.90
40291;DHT22;26000;48.304;13.626;2022-09-29T00:41:21;10.30;99.90
40291;DHT22;26000;48.304;13.626;2022-09-29T00:43:56;10.30;99.90
40291;DHT22;26000;48.304;13.626;2022-09-29T00:49:44;10.20;99.90
40291;DHT22;26000;48.304;13.626;2022-09-29T00:52:25;10.20;99.90
40291;DHT22;26000;48.304;13.626;2022-09-29T00:55:01;10.20;99.90
40291;DHT22;26000;48.304;13.626;2022-09-29T00:57:34;10.20;99.90
40291;DHT22;26000;48.304;13.626;2022-09-29T01:02:32;10.20;99.90
40291;DHT22;26000;48.304;13.626;2022-09-29T01:04:59;10.20;99.90
40291;DHT22;26000;48.304;13.626;2022-09-29T01:07:27;10.20;99.90
40291;DHT22;26000;48.304;13.626;2022-09-29T01:09:54;10.10;99.90
40291;DHT22;26000;48.304;13.626;2022-09-29T01:12:21;10.10;99.90
40291;DHT22;26000;48.304;13.626;2022-09-29T01:14:48;10.10;99.90
40291;DHT22;26000;48.304;13.626;2022-09-29T01:17:15;10.10;99.90
40291;DHT22;26000;48.304;13.626;2022-09-29T01:28:31;10.10;99.90
40291;DHT22;26000;48.304;13.626;2022-09-29T01:31:17;10.20;99.90
40291;DHT22;26000;48.304;13.626;2022-09-29T01:34:00;10.10;99.90
40291;DHT22;26000;48.304;13.626;2022-09-29T01:39:33;10.00;99.90
40291;DHT22;26000;48.304;13.626;2022-09-29T01:42:06;10.00;99.90
40291;DHT22;26000;48.304;13.626;2022-09-29T01:44:56;10.10;99.90
40291;DHT22;26000;48.304;13.626;2022-09-29T01:47:35;10.10;99.90
40291;DHT22;26000;48.304;13.626;2022-09-29T01:50:29;10.10;99.90
40291;DHT22;26000;48.304;13.626;2022-09-29T01:53:06;10.00;99.90
40291;DHT22;26000;48.304;13.626;2022-09-29T01:55:35;10.00;99.90
40291;DHT22;26000;48.304;13.626;2022-09-29T01:58:08;10.00;99.90
40291;DHT22;26000;48.304;13.626;2022-09-29T02:00:39;10.00;99.90
40291;DHT22;26000;48.304;13.626;2022-09-29T02:03:15;10.00;99.90
40291;DHT22;26000;48.304;13.626;2022-09-29T02:05:51;9.90;99.90
40291;DHT22;26000;48.304;13.626;2022-09-29T02:11:07;9.90;99.90
40291;DHT22;26000;48.304;13.626;2022-09-29T02:13:50;10.00;99.90
40291;DHT22;26000;48.304;13.626;2022-09-29T02:16:21;9.90;99.90
40291;DHT22;26000;48.304;13.626;2022-09-29T02:19:06;9.90;99.90
40291;DHT22;26000;48.304;13.626;2022-09-29T02:21:33;10.00;99.90
40291;DHT22;26000;48.304;13.626;2022-09-29T02:23:58;10.00;99.90
40291;DHT22;26000;48.304;13.626;2022-09-29T02:26:28;10.00;99.90
40291;DHT22;26000;48.304;13.626;2022-09-29T02:28:54;9.90;99.90
40291;DHT22;26000;48.304;13.626;2022-09-29T02:31:21;9.90;99.90
40291;DHT22;26000;48.304;13.626;2022-09-29T02:33:47;9.80;99.90
40291;DHT22;26000;48.304;13.626;2022-09-29T02:44:43;9.70;99.90
40291;DHT22;26000;48.304;13.626;2022-09-29T02:55:53;9.70;99.90
40291;DHT22;26000;48.304;13.626;2022-09-29T02:58:46;9.60;99.90
40291;DHT22;26000;48.304;13.626;2022-09-29T03:01:13;9.60;99.90
40291;DHT22;26000;48.304;13.626;2022-09-29T03:03:41;9.60;99.90
40291;DHT22;26000;48.304;13.626;2022-09-29T03:06:07;9.60;99.90
40291;DHT22;26000;48.304;13.626;2022-09-29T03:08:33;9.60;99.90
40291;DHT22;26000;48.304;13.626;2022-09-29T03:10:58;9.60;99.90
40291;DHT22;26000;48.304;13.626;2022-09-29T03:13:24;9.60;99.90
40291;DHT22;26000;48.304;13.626;2022-09-29T03:15:50;9.50;99.90
40291;DHT22;26000;48.304;13.626;2022-09-29T03:18:16;9.50;99.90
40291;DHT22;26000;48.304;13.626;2022-09-29T03:20:41;9.60;99.90
40291;DHT22;26000;48.304;13.626;2022-09-29T03:23:07;9.70;99.90
40291;DHT22;26000;48.304;13.626;2022-09-29T03:25:32;9.60;99.90
40291;DHT22;26000;48.304;13.626;2022-09-29T03:27:58;9.50;99.90
40291;DHT22;26000;48.304;13.626;2022-09-29T03:30:23;9.50;99.90
40291;DHT22;26000;48.304;13.626;2022-09-29T03:32:49;9.50;99.90
40291;DHT22;26000;48.304;13.626;2022-09-29T03:35:15;9.40;99.90
40291;DHT22;26000;48.304;13.626;2022-09-29T03:37:41;9.40;99.90
40291;DHT22;26000;48.304;13.626;2022-09-29T03:40:07;9.30;99.90
40291;DHT22;26000;48.304;13.626;2022-09-29T03:42:33;9.30;99.90
40291;DHT22;26000;48.304;13.626;2022-09-29T03:44:59;9.40;99.90
40291;DHT22;26000;48.304;13.626;2022-09-29T03:47:24;9.30;99.90
40291;DHT22;26000;48.304;13.626;2022-09-29T03:49:50;9.30;99.90
40291;DHT22;26000;48.304;13.626;2022-09-29T03:52:16;9.20;99.90
40291;DHT22;26000;48.304;13.626;2022-09-29T03:54:41;9.20;99.90
40291;DHT22;26000;48.304;13.626;2022-09-29T03:57:07;9.30;99.90
40291;DHT22;26000;48.304;13.626;2022-09-29T03:59:32;9.30;99.90
40291;DHT22;26000;48.304;13.626;2022-09-29T04:01:58;9.20;99.90
40291;DHT22;26000;48.304;13.626;2022-09-29T04:04:24;9.10;99.90
40291;DHT22;26000;48.304;13.626;2022-09-29T04:06:49;9.10;99.90
40291;DHT22;26000;48.304;13.626;2022-09-29T04:09:15;9.00;99.90
40291;DHT22;26000;48.304;13.626;2022-09-29T04:11:40;9.10;99.90
40291;DHT22;26000;48.304;13.626;2022-09-29T04:14:06;9.10;99.90
40291;DHT22;26000;48.304;13.626;2022-09-29T04:16:32;9.00;99.90
40291;DHT22;26000;48.304;13.626;2022-09-29T04:18:57;9.00;99.90
40291;DHT22;26000;48.304;13.626;2022-09-29T04:21:23;9.00;99.90
40291;DHT22;26000;48.304;13.626;2022-09-29T04:23:48;9.00;99.90
40291;DHT22;26000;48.304;13.626;2022-09-29T04:26:15;9.00;99.90
40291;DHT22;26000;48.304;13.626;2022-09-29T04:28:40;9.00;99.90
40291;DHT22;26000;48.304;13.626;2022-09-29T04:31:06;9.00;99.90
40291;DHT22;26000;48.304;13.626;2022-09-29T04:33:32;9.10;99.90
40291;DHT22;26000;48.304;13.626;2022-09-29T04:35:58;9.00;99.90
40291;DHT22;26000;48.304;13.626;2022-09-29T04:38:24;8.90;99.90
40291;DHT22;26000;48.304;13.626;2022-09-29T04:40:50;8.90;99.90
40291;DHT22;26000;48.304;13.626;2022-09-29T04:43:16;8.80;99.90
40291;DHT22;26000;48.304;13.626;2022-09-29T04:45:42;8.80;99.90
40291;DHT22;26000;48.304;13.626;2022-09-29T04:48:08;8.70;99.90
40291;DHT22;26000;48.304;13.626;2022-09-29T04:50:33;8.70;99.90
40291;DHT22;26000;48.304;13.626;2022-09-29T04:52:59;8.70;99.90
40291;DHT22;26000;48.304;13.626;2022-09-29T04:55:25;8.70;99.90
40291;DHT22;26000;48.304;13.626;2022-09-29T04:57:51;8.60;99.90
40291;DHT22;26000;48.304;13.626;2022-09-29T05:00:17;8.70;99.90
40291;DHT22;26000;48.304;13.626;2022-09-29T05:02:42;8.60;99.90
40291;DHT22;26000;48.304;13.626;2022-09-29T05:05:09;8.60;99.90
40291;DHT22;26000;48.304;13.626;2022-09-29T05:07:37;8.50;99.90
40291;DHT22;26000;48.304;13.626;2022-09-29T05:10:05;8.60;99.90
40291;DHT22;26000;48.304;13.626;2022-09-29T05:12:30;8.60;99.90
40291;DHT22;26000;48.304;13.626;2022-09-29T05:14:56;8.60;99.90
40291;DHT22;26000;48.304;13.626;2022-09-29T05:17:22;8.60;99.90
40291;DHT22;26000;48.304;13.626;2022-09-29T05:19:47;8.60;99.90
40291;DHT22;26000;48.304;13.626;2022-09-29T05:22:13;8.60;99.90
40291;DHT22;26000;48.304;13.626;2022-09-29T05:24:39;8.60;99.90
40291;DHT22;26000;48.304;13.626;2022-09-29T05:27:04;8.50;99.90
40291;DHT22;26000;48.304;13.626;2022-09-29T05:29:30;8.50;99.90
40291;DHT22;26000;48.304;13.626;2022-09-29T05:31:56;8.50;99.90
40291;DHT22;26000;48.304;13.626;2022-09-29T05:34:21;8.50;99.90
40291;DHT22;26000;48.304;13.626;2022-09-29T05:36:47;8.50;99.90
40291;DHT22;26000;48.304;13.626;2022-09-29T05:39:13;8.60;99.90
40291;DHT22;26000;48.304;13.626;2022-09-29T05:41:38;8.60;99.90
40291;DHT22;26000;48.304;13.626;2022-09-29T05:44:04;8.70;99.90
40291;DHT22;26000;48.304;13.626;2022-09-29T05:46:30;8.70;99.90
40291;DHT22;26000;48.304;13.626;2022-09-29T05:48:55;8.80;99.90
40291;DHT22;26000;48.304;13.626;2022-09-29T05:51:23;8.90;99.90
40291;DHT22;26000;48.304;13.626;2022-09-29T05:53:51;8.80;99.90
40291;DHT22;26000;48.304;13.626;2022-09-29T05:56:21;8.90;99.90
40291;DHT22;26000;48.304;13.626;2022-09-29T05:58:48;8.90;99.90
40291;DHT22;26000;48.304;13.626;2022-09-29T06:01:20;8.90;99.90
40291;DHT22;26000;48.304;13.626;2022-09-29T06:03:46;8.90;99.90
40291;DHT22;26000;48.304;13.626;2022-09-29T06:06:14;8.90;99.90
40291;DHT22;26000;48.304;13.626;2022-09-29T06:08:41;9.00;99.90
40291;DHT22;26000;48.304;13.626;2022-09-29T06:13:44;9.20;99.90
40291;DHT22;26000;48.304;13.626;2022-09-29T06:16:11;9.30;99.90
40291;DHT22;26000;48.304;13.626;2022-09-29T06:18:37;9.40;99.90
40291;DHT22;26000;48.304;13.626;2022-09-29T06:21:05;9.40;99.90
40291;DHT22;26000;48.304;13.626;2022-09-29T06:23:31;9.50;99.90
40291;DHT22;26000;48.304;13.626;2022-09-29T06:25:58;9.60;99.90
40291;DHT22;26000;48.304;13.626;2022-09-29T06:28:24;9.60;99.90
40291;DHT22;26000;48.304;13.626;2022-09-29T06:30:50;9.60;99.90
40291;DHT22;26000;48.304;13.626;2022-09-29T06:33:16;9.60;99.90
40291;DHT22;26000;48.304;13.626;2022-09-29T06:35:46;9.70;99.90
40291;DHT22;26000;48.304;13.626;2022-09-29T06:38:31;9.90;99.90
40291;DHT22;26000;48.304;13.626;2022-09-29T06:40:56;9.90;99.90
40291;DHT22;26000;48.304;13.626;2022-09-29T06:43:22;9.90;99.90
40291;DHT22;26000;48.304;13.626;2022-09-29T06:45:47;9.90;99.90
40291;DHT22;26000;48.304;13.626;2022-09-29T06:48:13;10.00;99.90
40291;DHT22;26000;48.304;13.626;2022-09-29T06:50:39;10.10;99.90
40291;DHT22;26000;48.304;13.626;2022-09-29T06:53:04;10.10;99.90
40291;DHT22;26000;48.304;13.626;2022-09-29T06:55:30;10.20;99.90
40291;DHT22;26000;48.304;13.626;2022-09-29T06:57:56;10.30;99.90
40291;DHT22;26000;48.304;13.626;2022-09-29T07:00:21;10.40;99.90
40291;DHT22;26000;48.304;13.626;2022-09-29T07:02:47;10.50;99.90
40291;DHT22;26000;48.304;13.626;2022-09-29T07:05:13;10.70;99.90
40291;DHT22;26000;48.304;13.626;2022-09-29T07:07:38;11.20;99.90
40291;DHT22;26000;48.304;13.626;2022-09-29T07:10:04;11.50;99.90
40291;DHT22;26000;48.304;13.626;2022-09-29T07:12:30;11.80;99.90
40291;DHT22;26000;48.304;13.626;2022-09-29T07:14:56;11.80;99.90
40291;DHT22;26000;48.304;13.626;2022-09-29T07:17:21;11.80;99.90
40291;DHT22;26000;48.304;13.626;2022-09-29T07:19:47;11.90;99.90
40291;DHT22;26000;48.304;13.626;2022-09-29T07:22:13;12.00;99.90
40291;DHT22;26000;48.304;13.626;2022-09-29T07:24:38;12.00;99.90
40291;DHT22;26000;48.304;13.626;2022-09-29T07:27:04;12.10;99.90
40291;DHT22;26000;48.304;13.626;2022-09-29T07:29:29;12.30;99.90
40291;DHT22;26000;48.304;13.626;2022-09-29T07:31:58;12.10;99.90
40291;DHT22;26000;48.304;13.626;2022-09-29T07:34:24;12.00;99.90
40291;DHT22;26000;48.304;13.626;2022-09-29T07:36:49;11.90;99.90
40291;DHT22;26000;48.304;13.626;2022-09-29T07:39:16;11.90;99.90
40291;DHT22;26000;48.304;13.626;2022-09-29T07:41:41;11.80;99.90
40291;DHT22;26000;48.304;13.626;2022-09-29T07:44:07;11.80;99.90
40291;DHT22;26000;48.304;13.626;2022-09-29T07:46:33;11.60;99.90
40291;DHT22;26000;48.304;13.626;2022-09-29T07:48:58;11.70;99.90
40291;DHT22;26000;48.304;13.626;2022-09-29T07:51:24;11.80;99.90
40291;DHT22;26000;48.304;13.626;2022-09-29T07:53:50;11.80;99.90
40291;DHT22;26000;48.304;13.626;2022-09-29T07:56:20;11.70;99.90
40291;DHT22;26000;48.304;13.626;2022-09-29T07:58:47;11.90;99.90
40291;DHT22;26000;48.304;13.626;2022-09-29T08:01:14;12.30;99.90
40291;DHT22;26000;48.304;13.626;2022-09-29T08:03:42;12.70;99.90
40291;DHT22;26000;48.304;13.626;2022-09-29T08:06:09;13.00;99.90
40291;DHT22;26000;48.304;13.626;2022-09-29T08:08:36;13.10;99.90
40291;DHT22;26000;48.304;13.626;2022-09-29T08:11:11;13.20;99.90
40291;DHT22;26000;48.304;13.626;2022-09-29T08:13:37;13.30;99.90
40291;DHT22;26000;48.304;13.626;2022-09-29T08:16:05;13.40;99.90
40291;DHT22;26000;48.304;13.626;2022-09-29T08:18:33;13.20;99.90
40291;DHT22;26000;48.304;13.626;2022-09-29T08:20:59;13.10;99.90
40291;DHT22;26000;48.304;13.626;2022-09-29T08:23:24;13.00;99.90
40291;DHT22;26000;48.304;13.626;2022-09-29T08:26:02;13.00;99.90
40291;DHT22;26000;48.304;13.626;2022-09-29T08:28:32;13.00;99.90
40291;DHT22;26000;48.304;13.626;2022-09-29T08:31:19;12.90;99.90
40291;DHT22;26000;48.304;13.626;2022-09-29T08:33:47;12.70;99.90
40291;DHT22;26000;48.304;13.626;2022-09-29T08:36:17;12.50;99.90
40291;DHT22;26000;48.304;13.626;2022-09-29T08:38:44;12.40;99.90
40291;DHT22;26000;48.304;13.626;2022-09-29T08:44:14;12.70;99.90
40291;DHT22;26000;48.304;13.626;2022-09-29T08:46:47;12.90;99.90
40291;DHT22;26000;48.304;13.626;2022-09-29T08:49:26;13.20;99.90
40291;DHT22;26000;48.304;13.626;2022-09-29T08:51:55;13.40;99.90
40291;DHT22;26000;48.304;13.626;2022-09-29T08:54:29;13.40;99.90
40291;DHT22;26000;48.304;13.626;2022-09-29T08:56:57;13.40;99.90
40291;DHT22;26000;48.304;13.626;2022-09-29T08:59:23;13.20;99.90
40291;DHT22;26000;48.304;13.626;2022-09-29T09:04:50;13.40;99.90
40291;DHT22;26000;48.304;13.626;2022-09-29T09:20:40;13.20;99.90
40291;DHT22;26000;48.304;13.626;2022-09-29T09:25:54;13.00;99.90
40291;DHT22;26000;48.304;13.626;2022-09-29T09:28:42;13.20;99.90
40291;DHT22;26000;48.304;13.626;2022-09-29T09:34:06;13.20;99.90
40291;DHT22;26000;48.304;13.626;2022-09-29T09:36:46;13.30;99.90
40291;DHT22;26000;48.304;13.626;2022-09-29T09:39:31;13.20;99.90
40291;DHT22;26000;48.304;13.626;2022-09-29T09:41:58;13.10;99.90
40291;DHT22;26000;48.304;13.626;2022-09-29T09:44:39;13.10;99.90
40291;DHT22;26000;48.304;13.626;2022-09-29T09:47:37;13.00;99.90
40291;DHT22;26000;48.304;13.626;2022-09-29T09:50:16;13.20;99.90
40291;DHT22;26000;48.304;13.626;2022-09-29T09:53:04;13.20;99.90
40291;DHT22;26000;48.304;13.626;2022-09-29T09:55:34;13.30;99.90
40291;DHT22;26000;48.304;13.626;2022-09-29T09:58:33;13.70;99.90
40291;DHT22;26000;48.304;13.626;2022-09-29T10:01:04;14.00;99.90
40291;DHT22;26000;48.304;13.626;2022-09-29T10:03:31;14.20;99.90
40291;DHT22;26000;48.304;13.626;2022-09-29T10:05:57;14.10;99.90
40291;DHT22;26000;48.304;13.626;2022-09-29T10:08:26;14.10;99.90
40291;DHT22;26000;48.304;13.626;2022-09-29T10:10:53;14.20;99.90
40291;DHT22;26000;48.304;13.626;2022-09-29T10:13:19;14.20;99.90
40291;DHT22;26000;48.304;13.626;2022-09-29T10:18:39;14.60;99.90
40291;DHT22;26000;48.304;13.626;2022-09-29T10:23:52;14.70;99.90
40291;DHT22;26000;48.304;13.626;2022-09-29T10:26:27;14.70;99.90
40291;DHT22;26000;48.304;13.626;2022-09-29T10:28:55;14.70;99.90
40291;DHT22;26000;48.304;13.626;2022-09-29T10:31:33;14.80;99.90
40291;DHT22;26000;48.304;13.626;2022-09-29T10:34:15;14.80;99.90
40291;DHT22;26000;48.304;13.626;2022-09-29T10:39:43;14.70;99.90
40291;DHT22;26000;48.304;13.626;2022-09-29T10:42:31;14.60;99.90
40291;DHT22;26000;48.304;13.626;2022-09-29T10:45:28;14.80;99.90
40291;DHT22;26000;48.304;13.626;2022-09-29T10:53:37;14.90;99.90
40291;DHT22;26000;48.304;13.626;2022-09-29T10:58:43;14.50;99.90
40291;DHT22;26000;48.304;13.626;2022-09-29T11:01:10;14.30;99.90
40291;DHT22;26000;48.304;13.626;2022-09-29T11:04:12;14.10;99.90
40291;DHT22;26000;48.304;13.626;2022-09-29T11:06:33;14.20;99.90
40291;DHT22;26000;48.304;13.626;2022-09-29T11:16:54;14.50;99.90
40291;DHT22;26000;48.304;13.626;2022-09-29T11:19:20;14.50;99.90
40291;DHT22;26000;48.304;13.626;2022-09-29T11:30:09;14.70;99.90
40291;DHT22;26000;48.304;13.626;2022-09-29T11:36:05;14.50;99.90
40291;DHT22;26000;48.304;13.626;2022-09-29T11:43:43;14.90;99.90
40291;DHT22;26000;48.304;13.626;2022-09-29T12:00:13;14.70;99.90
40291;DHT22;26000;48.304;13.626;2022-09-29T12:11:19;15.00;99.90
40291;DHT22;26000;48.304;13.626;2022-09-29T12:14:13;14.90;99.90
40291;DHT22;26000;48.304;13.626;2022-09-29T12:16:48;14.80;99.90
40291;DHT22;26000;48.304;13.626;2022-09-29T12:19:19;14.70;99.90
40291;DHT22;26000;48.304;13.626;2022-09-29T12:21:49;14.70;99.90
40291;DHT22;26000;48.304;13.626;2022-09-29T12:24:20;14.60;99.90
40291;DHT22;26000;48.304;13.626;2022-09-29T12:26:48;14.70;99.90
40291;DHT22;26000;48.304;13.626;2022-09-29T12:29:35;14.80;99.90
40291;DHT22;26000;48.304;13.626;2022-09-29T12:32:08;15.00;99.90
40291;DHT22;26000;48.304;13.626;2022-09-29T12:34:55;15.00;99.90
40291;DHT22;26000;48.304;13.626;2022-09-29T12:37:33;15.00;99.90
40291;DHT22;26000;48.304;13.626;2022-09-29T12:40:05;14.90;99.90
40291;DHT22;26000;48.304;13.626;2022-09-29T12:42:39;14.90;99.90
40291;DHT22;26000;48.304;13.626;2022-09-29T12:45:31;14.90;99.90
40291;DHT22;26000;48.304;13.626;2022-09-29T12:50:50;14.90;99.90
40291;DHT22;26000;48.304;13.626;2022-09-29T12:53:40;15.00;99.90
40291;DHT22;26000;48.304;13.626;2022-09-29T12:56:25;15.00;99.90
40291;DHT22;26000;48.304;13.626;2022-09-29T12:58:55;15.00;99.90
40291;DHT22;26000;48.304;13.626;2022-09-29T13:01:29;15.00;99.90
40291;DHT22;26000;48.304;13.626;2022-09-29T13:28:52;14.80;99.90
40291;DHT22;26000;48.304;13.626;2022-09-29T13:31:25;14.80;99.90
40291;DHT22;26000;48.304;13.626;2022-09-29T13:33:54;14.80;99.90
40291;DHT22;26000;48.304;13.626;2022-09-29T13:36:36;14.80;99.90
40291;DHT22;26000;48.304;13.626;2022-09-29T13:39:06;14.90;99.90
40291;DHT22;26000;48.304;13.626;2022-09-29T13:41:37;14.80;99.90
40291;DHT22;26000;48.304;13.626;2022-09-29T13:44:27;14.90;99.90
40291;DHT22;26000;48.304;13.626;2022-09-29T13:46:54;14.90;99.90
40291;DHT22;26000;48.304;13.626;2022-09-29T13:59:29;14.80;99.90
40291;DHT22;26000;48.304;13.626;2022-09-29T14:01:55;14.70;99.90
40291;DHT22;26000;48.304;13.626;2022-09-29T14:07:15;14.70;99.90
40291;DHT22;26000;48.304;13.626;2022-09-29T14:10:17;14.70;99.90
40291;DHT22;26000;48.304;13.626;2022-09-29T14:12:47;14.70;99.90
40291;DHT22;26000;48.304;13.626;2022-09-29T14:15:17;14.70;99.90
40291;DHT22;26000;48.304;13.626;2022-09-29T14:17:48;14.70;99.90
40291;DHT22;26000;48.304;13.626;2022-09-29T14:20:23;14.60;99.90
40291;DHT22;26000;48.304;13.626;2022-09-29T14:28:10;14.60;99.90
40291;DHT22;26000;48.304;13.626;2022-09-29T14:30:47;14.60;99.90
40291;DHT22;26000;48.304;13.626;2022-09-29T14:33:20;14.60;99.90
40291;DHT22;26000;48.304;13.626;2022-09-29T14:39:02;14.70;99.90
40291;DHT22;26000;48.304;13.626;2022-09-29T14:43:52;14.70;99.90
40291;DHT22;26000;48.304;13.626;2022-09-29T14:58:03;14.60;99.90
40291;DHT22;26000;48.304;13.626;2022-09-29T15:03:18;14.60;99.90
40291;DHT22;26000;48.304;13.626;2022-09-29T15:05:44;14.50;99.90
40291;DHT22;26000;48.304;13.626;2022-09-29T15:08:27;14.50;99.90
40291;DHT22;26000;48.304;13.626;2022-09-29T15:10:53;14.50;99.90
40291;DHT22;26000;48.304;13.626;2022-09-29T15:13:24;14.50;99.90
40291;DHT22;26000;48.304;13.626;2022-09-29T15:16:20;14.50;99.90
40291;DHT22;26000;48.304;13.626;2022-09-29T15:21:46;14.60;99.90
40291;DHT22;26000;48.304;13.626;2022-09-29T15:26:49;14.50;99.90
40291;DHT22;26000;48.304;13.626;2022-09-29T15:29:16;14.40;99.90
40291;DHT22;26000;48.304;13.626;2022-09-29T15:31:43;14.40;99.90
40291;DHT22;26000;48.304;13.626;2022-09-29T15:34:20;14.40;99.90
40291;DHT22;26000;48.304;13.626;2022-09-29T15:36:51;14.30;99.90
40291;DHT22;26000;48.304;13.626;2022-09-29T15:42:04;14.30;99.90
40291;DHT22;26000;48.304;13.626;2022-09-29T15:44:36;14.30;99.90
40291;DHT22;26000;48.304;13.626;2022-09-29T15:47:02;14.20;99.90
40291;DHT22;26000;48.304;13.626;2022-09-29T15:49:28;14.20;99.90
40291;DHT22;26000;48.304;13.626;2022-09-29T15:52:06;14.20;99.90
40291;DHT22;26000;48.304;13.626;2022-09-29T15:54:37;14.20;99.90
40291;DHT22;26000;48.304;13.626;2022-09-29T15:57:05;14.10;99.90
40291;DHT22;26000;48.304;13.626;2022-09-29T15:59:53;14.10;99.90
40291;DHT22;26000;48.304;13.626;2022-09-29T16:02:37;14.00;99.90
40291;DHT22;26000;48.304;13.626;2022-09-29T16:05:13;14.00;99.90
40291;DHT22;26000;48.304;13.626;2022-09-29T16:08:01;14.00;99.90
40291;DHT22;26000;48.304;13.626;2022-09-29T16:10:41;13.90;99.90
40291;DHT22;26000;48.304;13.626;2022-09-29T16:13:17;13.90;99.90
40291;DHT22;26000;48.304;13.626;2022-09-29T16:15:46;13.90;99.90
40291;DHT22;26000;48.304;13.626;2022-09-29T16:18:24;13.80;99.90
40291;DHT22;26000;48.304;13.626;2022-09-29T16:20:53;13.80;99.90
40291;DHT22;26000;48.304;13.626;2022-09-29T16:23:28;13.70;99.90
40291;DHT22;26000;48.304;13.626;2022-09-29T16:28:32;13.70;99.90
40291;DHT22;26000;48.304;13.626;2022-09-29T16:31:06;13.70;99.90
40291;DHT22;26000;48.304;13.626;2022-09-29T16:33:44;13.60;99.90
40291;DHT22;26000;48.304;13.626;2022-09-29T16:36:18;13.60;99.90
40291;DHT22;26000;48.304;13.626;2022-09-29T16:38:45;13.60;99.90
40291;DHT22;26000;48.304;13.626;2022-09-29T16:41:34;13.60;99.90
40291;DHT22;26000;48.304;13.626;2022-09-29T16:44:28;13.70;99.90
40291;DHT22;26000;48.304;13.626;2022-09-29T16:49:32;13.60;99.90
40291;DHT22;26000;48.304;13.626;2022-09-29T16:54:52;13.40;99.90
40291;DHT22;26000;48.304;13.626;2022-09-29T16:57:27;13.40;99.90
40291;DHT22;26000;48.304;13.626;2022-09-29T17:02:22;13.30;99.90
40291;DHT22;26000;48.304;13.626;2022-09-29T17:04:49;13.20;99.90
40291;DHT22;26000;48.304;13.626;2022-09-29T17:07:16;13.20;99.90
40291;DHT22;26000;48.304;13.626;2022-09-29T17:09:44;13.20;99.90
40291;DHT22;26000;48.304;13.626;2022-09-29T17:12:12;13.20;99.90
40291;DHT22;26000;48.304;13.626;2022-09-29T17:14:38;13.10;99.90
40291;DHT22;26000;48.304;13.626;2022-09-29T17:17:04;13.10;99.90
40291;DHT22;26000;48.304;13.626;2022-09-29T17:19:29;13.10;99.90
40291;DHT22;26000;48.304;13.626;2022-09-29T17:21:55;13.10;99.90
40291;DHT22;26000;48.304;13.626;2022-09-29T17:24:21;13.10;99.90
40291;DHT22;26000;48.304;13.626;2022-09-29T17:26:47;13.10;99.90
40291;DHT22;26000;48.304;13.626;2022-09-29T17:29:32;13.10;99.90
40291;DHT22;26000;48.304;13.626;2022-09-29T17:31:58;13.00;99.90
40291;DHT22;26000;48.304;13.626;2022-09-29T17:34:27;13.00;99.90
40291;DHT22;26000;48.304;13.626;2022-09-29T17:36:59;13.00;99.90
40291;DHT22;26000;48.304;13.626;2022-09-29T17:39:26;13.00;99.90
40291;DHT22;26000;48.304;13.626;2022-09-29T17:41:52;13.00;99.90
40291;DHT22;26000;48.304;13.626;2022-09-29T17:44:18;13.00;99.90
40291;DHT22;26000;48.304;13.626;2022-09-29T17:46:44;13.10;99.90
40291;DHT22;26000;48.304;13.626;2022-09-29T17:49:12;13.00;99.90
40291;DHT22;26000;48.304;13.626;2022-09-29T17:51:37;13.00;99.90
40291;DHT22;26000;48.304;13.626;2022-09-29T17:54:03;13.00;99.90
40291;DHT22;26000;48.304;13.626;2022-09-29T17:56:29;12.90;99.90
40291;DHT22;26000;48.304;13.626;2022-09-29T17:59:02;12.90;99.90
40291;DHT22;26000;48.304;13.626;2022-09-29T18:01:30;12.90;99.90
40291;DHT22;26000;48.304;13.626;2022-09-29T18:03:58;12.80;99.90
40291;DHT22;26000;48.304;13.626;2022-09-29T18:06:25;12.80;99.90
40291;DHT22;26000;48.304;13.626;2022-09-29T18:08:52;12.80;99.90
40291;DHT22;26000;48.304;13.626;2022-09-29T18:11:20;12.80;99.90
40291;DHT22;26000;48.304;13.626;2022-09-29T18:13:46;12.80;99.90
40291;DHT22;26000;48.304;13.626;2022-09-29T18:16:22;12.80;99.90
40291;DHT22;26000;48.304;13.626;2022-09-29T18:18:48;12.80;99.90
40291;DHT22;26000;48.304;13.626;2022-09-29T18:21:13;12.70;99.90
40291;DHT22;26000;48.304;13.626;2022-09-29T18:23:45;12.70;99.90
40291;DHT22;26000;48.304;13.626;2022-09-29T18:26:12;12.70;99.90
40291;DHT22;26000;48.304;13.626;2022-09-29T18:28:38;12.70;99.90
40291;DHT22;26000;48.304;13.626;2022-09-29T18:31:19;12.70;99.90
40291;DHT22;26000;48.304;13.626;2022-09-29T18:33:46;12.70;99.90
40291;DHT22;26000;48.304;13.626;2022-09-29T18:36:12;12.70;99.90
40291;DHT22;26000;48.304;13.626;2022-09-29T18:38:37;12.70;99.90
40291;DHT22;26000;48.304;13.626;2022-09-29T18:41:08;12.70;99.90
40291;DHT22;26000;48.304;13.626;2022-09-29T18:43:34;12.70;99.90
40291;DHT22;26000;48.304;13.626;2022-09-29T18:46:00;12.70;99.90
40291;DHT22;26000;48.304;13.626;2022-09-29T18:48:26;12.70;99.90
40291;DHT22;26000;48.304;13.626;2022-09-29T18:50:52;12.70;99.90
40291;DHT22;26000;48.304;13.626;2022-09-29T18:53:23;12.60;99.90
40291;DHT22;26000;48.304;13.626;2022-09-29T18:55:54;12.60;99.90
40291;DHT22;26000;48.304;13.626;2022-09-29T18:58:20;12.60;99.90
40291;DHT22;26000;48.304;13.626;2022-09-29T19:00:51;12.60;99.90
40291;DHT22;26000;48.304;13.626;2022-09-29T19:03:20;12.60;99.90
40291;DHT22;26000;48.304;13.626;2022-09-29T19:05:48;12.50;99.90
40291;DHT22;26000;48.304;13.626;2022-09-29T19:08:14;12.50;99.90
40291;DHT22;26000;48.304;13.626;2022-09-29T19:10:47;12.60;99.90
40291;DHT22;26000;48.304;13.626;2022-09-29T19:13:12;12.50;99.90